Time;durP1;ratioP1;P1;durP2;ratioP2;P2;SDS_P1;SDS_P2;PMS_P1;PMS_P2;Temp;Humidity;BMP_temperature;BMP_pressure;BME280_temperature;BME280_humidity;BME280_pressure;Samples;Min_cycle;Max_cycle;Signal;HPM_P1;HPM_P2
2022/09/07 00:00:43;;;;;;;3.80;3.50;;;;;;;19.55;100.00;99931.44;4966712;28;20198;-77
2022/09/07 00:03:08;;;;;;;4.57;3.90;;;;;;;19.57;100.00;99934.84;4963272;28;20262;-78
2022/09/07 00:05:40;;;;;;;3.93;3.50;;;;;;;19.56;100.00;99938.41;4962772;28;20425;-77
2022/09/07 00:08:05;;;;;;;3.90;3.60;;;;;;;19.51;100.00;99936.03;4964757;28;20295;-77
2022/09/07 00:10:31;;;;;;;3.47;3.27;;;;;;;19.50;100.00;99940.41;4964594;28;20272;-78
2022/09/07 00:12:56;;;;;;;4.27;3.73;;;;;;;19.48;100.00;99942.25;4964763;28;20186;-78
2022/09/07 00:15:21;;;;;;;4.10;3.70;;;;;;;19.44;100.00;99939.88;4964267;28;20194;-78
2022/09/07 00:17:47;;;;;;;4.20;3.90;;;;;;;19.41;100.00;99938.28;4963522;28;20634;-78
2022/09/07 00:20:12;;;;;;;3.70;3.40;;;;;;;19.40;100.00;99930.47;4964870;28;20597;-76
2022/09/07 00:22:38;;;;;;;3.50;3.20;;;;;;;19.37;100.00;99939.34;4968634;28;20256;-78
2022/09/07 00:25:04;;;;;;;4.27;3.87;;;;;;;19.36;100.00;99932.41;4965731;28;20184;-78
2022/09/07 00:27:29;;;;;;;3.73;3.37;;;;;;;19.34;100.00;99929.00;4969843;28;20836;-77
2022/09/07 00:29:55;;;;;;;4.93;3.80;;;;;;;19.32;100.00;99926.47;4962582;28;20717;-76
2022/09/07 00:32:20;;;;;;;4.03;3.47;;;;;;;19.34;100.00;99918.50;4964956;28;20199;-77
2022/09/07 00:34:46;;;;;;;3.67;3.37;;;;;;;19.36;100.00;99921.91;4966596;28;20252;-77
2022/09/07 00:37:11;;;;;;;5.23;3.90;;;;;;;19.36;100.00;99916.66;4963136;28;20721;-78
2022/09/07 00:39:37;;;;;;;5.30;4.07;;;;;;;19.33;100.00;99907.19;4969087;28;20279;-77
2022/09/07 00:42:03;;;;;;;4.63;3.40;;;;;;;19.31;100.00;99913.41;4963543;28;20197;-77
2022/09/07 00:44:53;;;;;;;4.17;3.40;;;;;;;19.29;100.00;99907.38;4969457;28;20184;-78
2022/09/07 00:47:28;;;;;;;3.60;3.30;;;;;;;19.28;100.00;99917.06;4965822;28;20627;-77
2022/09/07 00:49:58;;;;;;;3.63;3.33;;;;;;;19.25;100.00;99911.94;4966564;28;20197;-77
2022/09/07 00:52:27;;;;;;;3.77;3.37;;;;;;;19.22;100.00;99927.00;4970402;28;20186;-78
2022/09/07 00:54:58;;;;;;;4.00;3.60;;;;;;;19.21;100.00;99920.91;4964412;28;20189;-77
2022/09/07 00:57:26;;;;;;;4.00;3.60;;;;;;;19.21;100.00;99925.31;4968390;28;20212;-77
2022/09/07 00:59:54;;;;;;;4.70;3.90;;;;;;;19.18;100.00;99931.56;4962808;28;20193;-76
2022/09/07 01:02:20;;;;;;;5.47;3.93;;;;;;;19.15;100.00;99937.81;4968866;28;20210;-77
2022/09/07 01:04:49;;;;;;;4.33;3.93;;;;;;;19.13;100.00;99934.44;4969295;28;20705;-78
2022/09/07 01:07:14;;;;;;;4.00;3.40;;;;;;;19.13;100.00;99938.81;4966772;28;20218;-76
2022/09/07 01:09:41;;;;;;;6.93;3.90;;;;;;;19.12;100.00;99942.34;4967415;28;20197;-78
2022/09/07 01:12:06;;;;;;;4.20;3.40;;;;;;;19.12;100.00;99966.84;4972402;28;20238;-76
2022/09/07 01:14:38;;;;;;;3.80;3.50;;;;;;;19.12;100.00;99963.34;4965823;28;20197;-76
2022/09/07 01:17:22;;;;;;;5.37;3.90;;;;;;;19.13;100.00;99973.78;4967715;28;20214;-76
2022/09/07 01:20:09;;;;;;;4.10;3.80;;;;;;;19.18;100.00;99981.41;4968295;28;20191;-76
2022/09/07 01:23:12;;;;;;;4.60;4.20;;;;;;;19.23;100.00;100005.63;4966039;28;20699;-76
2022/09/07 01:25:52;;;;;;;4.43;4.03;;;;;;;19.21;100.00;100017.97;4967089;28;20198;-78
2022/09/07 01:28:27;;;;;;;4.33;3.77;;;;;;;19.22;100.00;100031.94;4966638;28;20224;-76
2022/09/07 01:30:57;;;;;;;3.97;3.60;;;;;;;19.20;100.00;100026.78;4970505;28;20223;-77
2022/09/07 01:33:32;;;;;;;4.13;3.17;;;;;;;19.19;100.00;100022.47;4970834;28;20182;-78
2022/09/07 01:36:19;;;;;;;4.03;3.70;;;;;;;19.20;100.00;100021.53;4970236;28;20191;-78
2022/09/07 01:38:52;;;;;;;3.20;2.90;;;;;;;19.22;100.00;100021.44;4968651;28;20192;-76
2022/09/07 01:41:28;;;;;;;3.43;3.10;;;;;;;19.29;100.00;100018.44;4969620;28;21132;-76
2022/09/07 01:43:59;;;;;;;3.53;3.23;;;;;;;19.35;100.00;100019.91;4981853;28;20232;-76
2022/09/07 01:46:43;;;;;;;4.33;3.37;;;;;;;19.42;100.00;100036.19;4966412;28;20215;-76
2022/09/07 01:49:19;;;;;;;3.20;2.90;;;;;;;19.49;100.00;100037.59;4964076;28;20190;-77
2022/09/07 01:51:50;;;;;;;3.50;3.20;;;;;;;19.50;100.00;100042.75;4968803;28;20193;-75
2022/09/07 01:54:50;;;;;;;2.93;2.70;;;;;;;19.53;100.00;100043.53;4965774;28;20205;-77
2022/09/07 01:57:32;;;;;;;3.13;2.93;;;;;;;19.54;100.00;100030.31;4956509;28;20227;-76
2022/09/07 02:00:10;;;;;;;3.63;2.93;;;;;;;19.57;100.00;100027.56;4970725;28;20219;-77
2022/09/07 02:02:59;;;;;;;3.50;3.00;;;;;;;19.59;100.00;100032.72;4966248;28;20205;-78
2022/09/07 02:05:51;;;;;;;2.80;2.60;;;;;;;19.60;100.00;100035.28;4964496;28;20689;-76
2022/09/07 02:08:27;;;;;;;3.60;2.90;;;;;;;19.61;100.00;100026.47;4967617;28;20272;-77
2022/09/07 02:11:02;;;;;;;4.07;2.67;;;;;;;19.64;100.00;100022.84;4970586;28;20209;-78
2022/09/07 02:13:40;;;;;;;3.27;2.80;;;;;;;19.66;100.00;100026.25;4967733;28;20285;-77
2022/09/07 02:16:30;;;;;;;4.33;2.60;;;;;;;19.67;100.00;100024.44;4961318;28;20197;-76
2022/09/07 02:19:07;;;;;;;2.80;2.60;;;;;;;19.69;100.00;100036.59;4960697;28;20684;-77
2022/09/07 02:21:39;;;;;;;3.53;2.70;;;;;;;19.69;100.00;100026.09;4962972;28;20260;-77
2022/09/07 02:24:13;;;;;;;3.30;2.80;;;;;;;19.70;100.00;100025.16;4966023;28;20211;-77
2022/09/07 02:26:40;;;;;;;4.43;2.80;;;;;;;19.69;100.00;100018.22;4978770;28;20216;-77
2022/09/07 02:29:06;;;;;;;3.20;2.33;;;;;;;19.69;100.00;100023.47;4973244;28;20197;-76
2022/09/07 02:31:32;;;;;;;2.73;2.53;;;;;;;19.68;100.00;100027.00;4963385;28;20193;-76
2022/09/07 02:34:00;;;;;;;2.50;2.10;;;;;;;19.67;100.00;100024.44;4968486;28;20266;-79
2022/09/07 02:36:32;;;;;;;2.47;2.20;;;;;;;19.63;100.00;100026.38;4960581;28;20260;-77
2022/09/07 02:38:58;;;;;;;3.13;2.53;;;;;;;19.60;100.00;100016.91;4968129;28;20202;-79
2022/09/07 02:41:41;;;;;;;2.37;2.17;;;;;;;19.57;100.00;100016.22;4960801;28;20763;-77
2022/09/07 02:44:14;;;;;;;2.30;2.10;;;;;;;19.54;100.00;100011.13;4969319;28;20266;-76
2022/09/07 02:47:19;;;;;;;2.93;2.30;;;;;;;19.50;100.00;100019.13;4963835;28;20217;-77
2022/09/07 02:49:50;;;;;;;2.50;2.13;;;;;;;19.45;100.00;100013.25;4960441;28;20695;-77
2022/09/07 02:53:00;;;;;;;2.20;2.00;;;;;;;19.43;100.00;100019.53;4968020;28;20188;-79
2022/09/07 02:55:40;;;;;;;2.30;1.97;;;;;;;19.39;100.00;100031.97;4965785;28;20303;-77
2022/09/07 02:58:19;;;;;;;2.10;1.90;;;;;;;19.34;100.00;100037.44;4961871;28;20235;-76
2022/09/07 03:00:58;;;;;;;2.40;1.93;;;;;;;19.31;100.00;100032.34;4966328;28;20272;-77
2022/09/07 03:03:33;;;;;;;2.90;2.10;;;;;;;19.29;100.00;100020.19;4968657;28;20227;-77
2022/09/07 03:06:03;;;;;;;2.93;2.07;;;;;;;19.24;100.00;100004.69;4966599;28;20191;-76
2022/09/07 03:08:37;;;;;;;2.33;2.00;;;;;;;19.27;100.00;99993.22;4961149;28;20267;-78
2022/09/07 03:11:07;;;;;;;2.83;2.30;;;;;;;19.31;100.00;100007.84;4982268;28;20278;-77
2022/09/07 03:13:32;;;;;;;3.17;2.33;;;;;;;19.34;100.00;100018.22;4968615;28;20276;-77
2022/09/07 03:15:58;;;;;;;3.23;2.40;;;;;;;19.38;100.00;100003.16;4961123;28;20188;-76
2022/09/07 03:18:25;;;;;;;3.03;2.63;;;;;;;19.39;100.00;100008.34;4965391;28;20231;-77
2022/09/07 03:20:50;;;;;;;4.00;2.70;;;;;;;19.38;100.00;100011.03;4962684;28;20212;-76
2022/09/07 03:23:16;;;;;;;3.43;2.50;;;;;;;19.37;100.00;100009.31;4960621;28;20302;-76
2022/09/07 03:25:41;;;;;;;2.83;2.20;;;;;;;19.34;100.00;100005.09;4964463;28;20191;-76
2022/09/07 03:28:06;;;;;;;3.13;2.40;;;;;;;19.28;100.00;99993.13;4962168;28;20287;-77
2022/09/07 03:30:32;;;;;;;3.13;2.37;;;;;;;19.23;100.00;99989.88;4959844;28;21006;-77
2022/09/07 03:32:58;;;;;;;3.73;2.40;;;;;;;19.17;100.00;100001.53;4962083;28;20192;-76
2022/09/07 03:35:23;;;;;;;3.40;2.67;;;;;;;19.11;100.00;99982.63;4963173;28;20623;-76
2022/09/07 03:37:48;;;;;;;3.67;2.20;;;;;;;19.03;100.00;99983.88;4958625;28;21069;-77
2022/09/07 03:40:15;;;;;;;2.77;2.30;;;;;;;18.96;100.00;99985.06;4968738;28;20720;-77
2022/09/07 03:42:41;;;;;;;3.07;2.80;;;;;;;18.90;100.00;99990.59;4960227;28;20203;-77
2022/09/07 03:45:08;;;;;;;2.73;2.53;;;;;;;18.86;100.00;99999.53;4955385;28;20747;-76
2022/09/07 03:47:34;;;;;;;2.90;2.40;;;;;;;18.81;100.00;99994.53;4955611;28;20328;-76
2022/09/07 03:49:59;;;;;;;3.37;2.90;;;;;;;18.77;100.00;99987.72;4962888;28;20663;-76
2022/09/07 03:52:25;;;;;;;3.17;2.50;;;;;;;18.74;100.00;99990.47;4962943;28;20247;-77
2022/09/07 03:54:50;;;;;;;3.63;2.97;;;;;;;18.72;100.00;99992.31;4960732;28;20833;-76
2022/09/07 03:57:16;;;;;;;2.97;2.67;;;;;;;18.68;100.00;99985.56;4968654;28;20672;-77
2022/09/07 03:59:41;;;;;;;3.60;2.47;;;;;;;18.65;100.00;99983.06;4964519;28;20217;-77
2022/09/07 04:02:06;;;;;;;3.50;2.33;;;;;;;18.61;100.00;99992.00;4962170;28;20446;-77
2022/09/07 04:04:32;;;;;;;3.37;2.60;;;;;;;18.55;100.00;99983.47;4965530;28;20335;-76
2022/09/07 04:06:57;;;;;;;3.83;2.90;;;;;;;18.52;100.00;99988.03;4970162;28;20362;-77
2022/09/07 04:09:23;;;;;;;3.00;2.50;;;;;;;18.47;100.00;99990.00;4968694;28;20192;-77
2022/09/07 04:11:48;;;;;;;3.50;2.67;;;;;;;18.42;100.00;100006.81;4974594;28;20331;-76
2022/09/07 04:14:13;;;;;;;2.93;2.57;;;;;;;18.36;100.00;99998.38;4965500;28;20190;-76
2022/09/07 04:16:39;;;;;;;2.97;2.77;;;;;;;18.33;100.00;99999.34;4968355;28;20820;-76
2022/09/07 04:19:05;;;;;;;3.57;2.73;;;;;;;18.30;100.00;100007.38;4970308;28;20199;-76
2022/09/07 04:21:32;;;;;;;3.20;2.90;;;;;;;18.27;100.00;100010.97;4969988;28;20719;-76
2022/09/07 04:23:58;;;;;;;4.10;3.20;;;;;;;18.25;100.00;100022.44;4970427;28;20639;-76
2022/09/07 04:26:26;;;;;;;4.00;3.00;;;;;;;18.23;100.00;100029.53;4969094;28;20734;-77
2022/09/07 04:28:53;;;;;;;4.30;3.27;;;;;;;18.19;100.00;100026.19;4967213;28;20195;-75
2022/09/07 04:31:19;;;;;;;3.27;2.97;;;;;;;18.16;100.00;100026.31;4972501;28;20619;-76
2022/09/07 04:33:46;;;;;;;3.77;3.13;;;;;;;18.14;100.00;100022.91;4964697;28;20241;-78
2022/09/07 04:36:12;;;;;;;3.80;3.50;;;;;;;18.11;100.00;100023.91;4967262;28;20292;-76
2022/09/07 04:38:38;;;;;;;3.93;3.40;;;;;;;18.11;100.00;100028.28;4960616;28;20203;-77
2022/09/07 04:41:22;;;;;;;4.43;3.50;;;;;;;18.11;100.00;100023.06;4978338;28;20280;-76
2022/09/07 04:43:53;;;;;;;3.87;3.30;;;;;;;18.10;100.00;100022.22;4965352;28;20221;-76
2022/09/07 04:46:33;;;;;;;3.93;3.53;;;;;;;18.11;100.00;100026.53;4964652;28;20252;-76
2022/09/07 04:49:04;;;;;;;4.20;3.57;;;;;;;18.10;100.00;100034.44;4971224;28;20189;-77
2022/09/07 04:51:31;;;;;;;4.03;3.53;;;;;;;18.11;100.00;100038.75;4974751;28;20196;-77
2022/09/07 04:53:58;;;;;;;4.53;3.60;;;;;;;18.10;100.00;100027.44;4972853;28;20201;-76
2022/09/07 04:56:24;;;;;;;3.80;3.50;;;;;;;18.10;100.00;100034.44;4976567;28;20299;-75
2022/09/07 04:58:50;;;;;;;4.00;3.57;;;;;;;18.08;100.00;100034.53;4979220;28;20279;-76
2022/09/07 05:01:18;;;;;;;4.57;3.57;;;;;;;18.07;100.00;100034.59;4970639;28;20663;-76
2022/09/07 05:03:44;;;;;;;3.70;3.40;;;;;;;18.08;100.00;100038.88;4976546;28;20749;-75
2022/09/07 05:06:10;;;;;;;4.93;3.57;;;;;;;18.08;100.00;100044.13;4981859;28;20259;-77
2022/09/07 05:08:40;;;;;;;3.40;3.10;;;;;;;18.11;100.00;100046.63;4983349;28;20910;-77
2022/09/07 05:11:07;;;;;;;5.00;3.87;;;;;;;18.13;100.00;100044.78;4965261;28;20228;-76
2022/09/07 05:13:33;;;;;;;4.03;3.73;;;;;;;18.17;100.00;100040.25;4967379;28;20182;-77
2022/09/07 05:16:00;;;;;;;4.10;3.70;;;;;;;18.20;100.00;100045.38;4964920;28;20565;-76
2022/09/07 05:18:26;;;;;;;5.47;3.70;;;;;;;18.23;100.00;100034.75;4967263;28;20196;-77
2022/09/07 05:20:51;;;;;;;3.80;3.50;;;;;;;18.25;100.00;100044.22;4973202;28;20189;-76
2022/09/07 05:23:17;;;;;;;4.03;3.40;;;;;;;18.30;100.00;100044.06;4975763;28;20216;-76
2022/09/07 05:25:44;;;;;;;4.43;3.43;;;;;;;18.35;100.00;100052.53;4972502;28;20276;-77
2022/09/07 05:28:10;;;;;;;4.57;3.53;;;;;;;18.42;100.00;100045.25;4975613;28;20221;-76
2022/09/07 05:30:36;;;;;;;3.83;3.50;;;;;;;18.51;100.00;100051.84;4969802;28;20197;-77
2022/09/07 05:33:01;;;;;;;4.67;3.30;;;;;;;18.58;100.00;100059.34;4961667;28;20541;-75
2022/09/07 05:35:27;;;;;;;4.40;3.73;;;;;;;18.66;100.00;100056.38;4974081;28;20199;-76
2022/09/07 05:37:52;;;;;;;4.30;3.70;;;;;;;18.73;100.00;100049.94;4976988;28;20310;-75
2022/09/07 05:40:17;;;;;;;5.60;3.63;;;;;;;18.83;100.00;100059.97;4968713;28;20550;-77
2022/09/07 05:42:43;;;;;;;4.63;3.33;;;;;;;18.92;100.00;100054.28;4984041;28;20325;-76
2022/09/07 05:45:09;;;;;;;5.53;4.10;;;;;;;19.03;100.00;100059.06;4977552;28;20196;-76
2022/09/07 05:47:36;;;;;;;8.33;4.27;;;;;;;19.14;100.00;100067.25;4977148;28;20621;-77
2022/09/07 05:50:03;;;;;;;4.63;3.70;;;;;;;19.44;100.00;100064.03;4978727;28;20258;-76
2022/09/07 05:52:29;;;;;;;3.90;2.90;;;;;;;19.63;100.00;100068.38;4976429;28;20184;-76
2022/09/07 05:54:54;;;;;;;3.50;3.20;;;;;;;19.68;100.00;100071.63;4965316;28;20191;-76
2022/09/07 05:57:19;;;;;;;4.23;3.20;;;;;;;19.77;100.00;100073.78;4971442;28;20616;-77
2022/09/07 05:59:45;;;;;;;5.03;3.30;;;;;;;19.92;100.00;100079.22;4977759;28;20191;-76
2022/09/07 06:02:14;;;;;;;5.67;3.50;;;;;;;20.15;100.00;100077.19;4965462;28;20202;-76
2022/09/07 06:04:40;;;;;;;3.90;3.37;;;;;;;20.33;100.00;100065.72;4975457;28;20307;-75
2022/09/07 06:07:05;;;;;;;4.10;3.20;;;;;;;20.58;100.00;100069.63;4967210;28;20785;-75
2022/09/07 06:09:31;;;;;;;4.10;2.97;;;;;;;20.70;100.00;100073.38;4968853;28;20197;-79
2022/09/07 06:11:56;;;;;;;4.87;3.20;;;;;;;20.73;100.00;100080.25;4977391;28;20572;-77
2022/09/07 06:14:21;;;;;;;3.73;3.17;;;;;;;20.77;100.00;100073.91;4976497;28;20642;-76
2022/09/07 06:16:47;;;;;;;4.37;2.93;;;;;;;20.77;100.00;100081.81;4967503;28;20218;-75
2022/09/07 06:19:12;;;;;;;3.67;3.27;;;;;;;20.76;100.00;100078.31;4962856;28;20193;-75
2022/09/07 06:21:37;;;;;;;3.27;2.90;;;;;;;20.75;100.00;100081.00;4967797;28;20204;-77
2022/09/07 06:24:04;;;;;;;4.73;3.23;;;;;;;20.80;100.00;100084.25;4976490;28;20220;-76
2022/09/07 06:26:30;;;;;;;4.03;2.97;;;;;;;20.90;100.00;100084.59;4977952;28;20211;-76
2022/09/07 06:28:55;;;;;;;4.30;3.17;;;;;;;20.99;100.00;100086.72;4974612;28;21938;-76
2022/09/07 06:31:23;;;;;;;4.60;2.97;;;;;;;21.17;100.00;100093.59;4972268;28;20255;-77
2022/09/07 06:33:49;;;;;;;5.03;3.30;;;;;;;21.50;100.00;100104.03;4964839;28;20178;-76
2022/09/07 06:36:19;;;;;;;5.17;3.27;;;;;;;22.11;100.00;100104.03;4964050;28;20228;-75
2022/09/07 06:38:46;;;;;;;5.00;3.27;;;;;;;22.89;100.00;100103.66;4966966;28;20185;-75
2022/09/07 06:41:14;;;;;;;3.60;2.90;;;;;;;23.32;100.00;100101.84;4964625;28;20197;-76
2022/09/07 06:43:40;;;;;;;4.67;2.83;;;;;;;23.35;100.00;100104.28;4975814;28;20217;-74
2022/09/07 06:46:05;;;;;;;3.60;2.90;;;;;;;23.35;100.00;100101.66;4969746;28;20265;-76
2022/09/07 06:48:31;;;;;;;4.13;2.87;;;;;;;23.52;100.00;100100.56;4976558;28;20197;-78
2022/09/07 06:50:58;;;;;;;5.40;2.90;;;;;;;24.03;100.00;100102.44;4970626;28;20194;-75
2022/09/07 06:53:25;;;;;;;4.63;3.03;;;;;;;24.48;100.00;100101.97;4980223;28;20324;-75
2022/09/07 06:55:50;;;;;;;2.93;2.40;;;;;;;24.79;100.00;100105.13;4971654;28;20196;-76
2022/09/07 06:58:16;;;;;;;4.47;2.70;;;;;;;25.06;100.00;100106.72;4979618;28;20188;-79
2022/09/07 07:00:41;;;;;;;3.00;2.27;;;;;;;25.28;100.00;100106.00;4979017;28;20198;-77
2022/09/07 07:03:07;;;;;;;5.87;2.67;;;;;;;25.45;100.00;100114.53;4967865;28;20825;-75
2022/09/07 07:05:32;;;;;;;3.83;2.50;;;;;;;25.53;99.78;100109.50;4974799;28;20186;-75
2022/09/07 07:07:57;;;;;;;5.53;2.50;;;;;;;25.54;100.00;100114.69;4971924;28;20592;-77
2022/09/07 07:10:23;;;;;;;4.37;2.83;;;;;;;25.56;100.00;100112.78;4975415;28;20193;-75
2022/09/07 07:12:51;;;;;;;4.40;2.30;;;;;;;25.59;100.00;100113.50;4966848;28;20264;-75
2022/09/07 07:15:17;;;;;;;3.00;2.40;;;;;;;25.49;100.00;100114.19;4965358;28;20197;-77
2022/09/07 07:17:42;;;;;;;4.20;2.30;;;;;;;25.40;100.00;100115.69;4966943;28;20217;-75
2022/09/07 07:20:08;;;;;;;3.27;2.30;;;;;;;25.31;100.00;100120.84;4964718;28;20204;-76
2022/09/07 07:22:34;;;;;;;3.27;2.20;;;;;;;25.29;100.00;100112.97;4963920;28;20210;-76
2022/09/07 07:24:59;;;;;;;2.47;2.00;;;;;;;25.33;100.00;100109.16;4965796;28;20620;-76
2022/09/07 07:27:25;;;;;;;4.00;2.10;;;;;;;25.37;100.00;100117.72;4975259;28;20241;-76
2022/09/07 07:29:51;;;;;;;3.27;2.07;;;;;;;25.33;100.00;100117.09;4967935;28;20193;-76
2022/09/07 07:32:16;;;;;;;3.47;2.30;;;;;;;25.32;100.00;100117.22;4974855;28;20644;-75
2022/09/07 07:34:42;;;;;;;3.43;2.40;;;;;;;25.30;100.00;100119.13;4974871;28;20185;-77
2022/09/07 07:37:07;;;;;;;2.83;2.53;;;;;;;25.24;100.00;100118.63;4973704;28;20225;-75
2022/09/07 07:39:32;;;;;;;5.20;2.90;;;;;;;25.26;100.00;100124.66;4978060;28;20193;-75
2022/09/07 07:41:58;;;;;;;2.70;2.40;;;;;;;25.23;100.00;100129.34;4970575;28;20193;-76
2022/09/07 07:44:23;;;;;;;4.23;2.40;;;;;;;25.15;100.00;100129.91;4979936;28;20297;-76
2022/09/07 07:46:49;;;;;;;4.27;2.23;;;;;;;25.15;100.00;100124.59;4965329;28;20214;-77
2022/09/07 07:49:18;;;;;;;4.27;3.23;;;;;;;25.12;100.00;100130.13;4986957;28;20216;-77
2022/09/07 07:51:44;;;;;;;4.97;2.50;;;;;;;25.06;100.00;100125.25;4977882;28;20190;-75
2022/09/07 07:54:09;;;;;;;4.50;2.30;;;;;;;25.06;100.00;100120.81;4968595;28;20190;-75
2022/09/07 07:56:35;;;;;;;4.37;2.23;;;;;;;25.10;100.00;100119.66;4970130;28;20595;-75
2022/09/07 07:59:00;;;;;;;4.63;3.00;;;;;;;25.11;100.00;100115.19;4973458;28;20296;-75
2022/09/07 08:01:26;;;;;;;2.70;2.20;;;;;;;25.13;100.00;100123.88;4980238;28;20280;-75
2022/09/07 08:03:51;;;;;;;2.63;2.10;;;;;;;25.11;100.00;100118.66;4966669;28;20221;-76
2022/09/07 08:06:19;;;;;;;3.33;2.20;;;;;;;25.07;100.00;100130.47;4962377;28;20656;-77
2022/09/07 08:08:45;;;;;;;2.70;1.80;;;;;;;25.02;100.00;100137.88;4971561;28;20192;-76
2022/09/07 08:11:20;;;;;;;2.77;1.97;;;;;;;25.03;100.00;100128.16;4981842;28;20272;-75
2022/09/07 08:13:48;;;;;;;3.80;2.27;;;;;;;25.04;100.00;100129.81;4973523;28;20283;-78
2022/09/07 08:16:15;;;;;;;4.27;2.13;;;;;;;25.08;100.00;100133.94;4974636;28;20781;-76
2022/09/07 08:18:40;;;;;;;4.33;2.10;;;;;;;25.08;100.00;100137.44;4969731;28;20190;-76
2022/09/07 08:21:11;;;;;;;4.30;2.23;;;;;;;25.05;100.00;100128.84;4968704;28;20693;-77
2022/09/07 08:23:37;;;;;;;4.87;2.00;;;;;;;25.05;100.00;100132.38;4965104;28;20603;-75
2022/09/07 08:26:04;;;;;;;3.90;2.20;;;;;;;25.11;100.00;100144.31;4969573;28;20537;-75
2022/09/07 08:28:31;;;;;;;4.57;2.33;;;;;;;25.17;100.00;100132.44;4975548;28;20201;-76
2022/09/07 08:30:57;;;;;;;2.57;1.80;;;;;;;25.22;100.00;100139.06;4972938;28;20236;-76
2022/09/07 08:33:23;;;;;;;4.97;2.37;;;;;;;25.29;100.00;100136.81;4975110;28;20195;-75
2022/09/07 08:36:02;;;;;;;3.80;2.03;;;;;;;25.30;100.00;100132.38;4978904;28;20186;-76
2022/09/07 08:38:29;;;;;;;3.97;2.20;;;;;;;25.31;99.84;100137.56;4972217;28;20205;-75
2022/09/07 08:40:55;;;;;;;3.93;2.53;;;;;;;25.34;100.00;100141.78;4968450;28;20205;-75
2022/09/07 08:43:41;;;;;;;3.03;2.00;;;;;;;25.37;100.00;100146.84;4979488;28;20214;-76
2022/09/07 08:46:26;;;;;;;2.93;2.23;;;;;;;25.41;100.00;100138.59;4966519;28;20194;-75
2022/09/07 08:48:53;;;;;;;4.33;2.60;;;;;;;25.48;100.00;100138.16;4970863;28;20186;-75
2022/09/07 08:51:20;;;;;;;4.73;2.30;;;;;;;25.54;100.00;100137.69;4978884;28;20200;-74
2022/09/07 08:53:47;;;;;;;3.37;2.50;;;;;;;25.59;100.00;100137.34;4987201;28;20189;-76
2022/09/07 08:56:25;;;;;;;2.50;2.30;;;;;;;25.63;100.00;100138.81;4976349;28;20594;-76
2022/09/07 08:58:52;;;;;;;3.17;2.30;;;;;;;25.65;100.00;100140.38;4980436;28;20186;-76
2022/09/07 09:01:35;;;;;;;3.10;1.93;;;;;;;25.71;99.93;100139.06;4969002;28;20648;-77
2022/09/07 09:04:00;;;;;;;4.17;2.37;;;;;;;25.75;99.94;100142.34;4972338;28;20825;-74
2022/09/07 09:06:47;;;;;;;4.80;2.30;;;;;;;25.81;99.96;100148.00;4968503;28;20225;-77
2022/09/07 09:09:19;;;;;;;3.70;2.30;;;;;;;25.89;99.38;100149.25;4969819;28;20684;-77
2022/09/07 09:11:58;;;;;;;4.63;2.60;;;;;;;25.96;98.03;100153.13;4977634;28;20190;-76
2022/09/07 09:15:00;;;;;;;7.00;2.60;;;;;;;26.01;99.08;100143.88;4968554;28;20200;-76
2022/09/07 09:17:32;;;;;;;3.10;2.20;;;;;;;26.08;98.88;100141.59;4977187;28;20288;-75
2022/09/07 09:20:34;;;;;;;3.53;2.57;;;;;;;26.25;98.62;100142.09;4977259;28;20194;-74
2022/09/07 09:23:11;;;;;;;6.37;3.27;;;;;;;26.36;98.09;100131.53;4974133;28;20215;-75
2022/09/07 09:25:41;;;;;;;6.20;2.73;;;;;;;26.35;97.05;100132.50;4965584;28;20198;-75
2022/09/07 09:28:11;;;;;;;6.27;2.70;;;;;;;26.31;96.97;100129.25;4968568;28;20545;-76
2022/09/07 09:30:36;;;;;;;2.77;2.47;;;;;;;26.29;96.69;100122.34;4976260;28;20671;-75
2022/09/07 09:33:15;;;;;;;3.30;2.13;;;;;;;26.31;96.66;100121.28;4971924;28;20185;-75
2022/09/07 09:35:42;;;;;;;3.67;2.40;;;;;;;26.36;96.77;100128.00;4971248;28;20209;-76
2022/09/07 09:38:32;;;;;;;2.27;1.97;;;;;;;26.43;96.61;100119.44;4972059;28;20231;-75
2022/09/07 09:41:08;;;;;;;5.53;2.80;;;;;;;26.50;94.42;100108.38;4960410;28;20260;-76
2022/09/07 09:43:37;;;;;;;3.10;2.17;;;;;;;26.48;95.17;100113.78;4971683;28;20289;-75
2022/09/07 09:46:17;;;;;;;3.60;2.50;;;;;;;26.50;95.52;100117.16;4962246;28;20228;-74
2022/09/07 09:48:51;;;;;;;2.57;2.03;;;;;;;26.50;95.57;100111.84;4967104;28;20185;-75
2022/09/07 09:51:16;;;;;;;2.43;1.90;;;;;;;26.50;95.52;100109.19;4981362;28;20265;-74
2022/09/07 09:54:06;;;;;;;2.77;2.10;;;;;;;26.57;95.58;100102.44;4975125;28;20244;-75
2022/09/07 09:56:36;;;;;;;4.43;2.30;;;;;;;26.63;93.42;100101.13;4980205;28;20213;-75
2022/09/07 09:59:17;;;;;;;4.23;2.20;;;;;;;26.70;93.30;100098.81;4971376;28;20185;-75
2022/09/07 10:01:44;;;;;;;6.20;2.60;;;;;;;26.86;92.23;100099.31;4970285;28;20272;-75
2022/09/07 10:04:39;;;;;;;6.00;2.70;;;;;;;26.91;91.83;100096.28;4970147;28;20296;-76
2022/09/07 10:07:10;;;;;;;4.77;2.40;;;;;;;27.00;91.89;100094.69;4963572;28;20217;-74
2022/09/07 10:09:39;;;;;;;5.17;2.47;;;;;;;27.16;90.69;100091.59;4976822;28;20200;-75
2022/09/07 10:12:07;;;;;;;3.97;2.40;;;;;;;27.27;90.05;100086.25;4968899;28;20707;-75
2022/09/07 10:14:45;;;;;;;3.27;2.33;;;;;;;27.31;90.50;100085.00;4974416;28;20240;-75
2022/09/07 10:17:33;;;;;;;3.83;2.30;;;;;;;27.36;90.82;100093.47;4976100;28;20509;-75
2022/09/07 10:20:29;;;;;;;3.27;2.50;;;;;;;27.42;90.68;100094.75;4978952;28;20339;-77
2022/09/07 10:22:58;;;;;;;3.80;2.70;;;;;;;27.51;90.58;100090.53;4961033;28;20225;-78
2022/09/07 10:25:53;;;;;;;3.53;2.60;;;;;;;27.57;90.28;100089.16;4979242;28;20613;-76
2022/09/07 10:28:23;;;;;;;3.87;2.43;;;;;;;27.65;89.40;100082.22;4955613;28;20206;-75
2022/09/07 10:31:02;;;;;;;3.30;2.87;;;;;;;27.68;88.87;100079.31;4968903;28;20222;-78
2022/09/07 10:33:43;;;;;;;4.60;2.50;;;;;;;27.49;89.21;100079.19;4964964;28;20186;-75
2022/09/07 10:36:09;;;;;;;3.37;2.40;;;;;;;27.41;89.64;100078.97;4975442;28;20189;-74
2022/09/07 10:38:43;;;;;;;2.17;1.77;;;;;;;27.44;88.79;100078.72;4966549;28;20563;-75
2022/09/07 10:41:10;;;;;;;3.67;1.90;;;;;;;27.47;88.06;100075.78;4973382;28;20196;-74
2022/09/07 10:43:44;;;;;;;2.53;2.20;;;;;;;27.39;88.41;100076.41;4981646;28;20216;-76
2022/09/07 10:46:31;;;;;;;2.57;2.17;;;;;;;27.39;87.49;100074.63;4972636;28;20583;-76
2022/09/07 10:49:34;;;;;;;4.17;2.33;;;;;;;27.51;85.35;100078.09;4966070;28;20195;-74
2022/09/07 10:52:33;;;;;;;2.97;2.23;;;;;;;27.61;83.93;100064.00;4972413;28;20211;-75
2022/09/07 10:55:06;;;;;;;3.17;2.60;;;;;;;27.68;84.41;100058.06;4970059;28;20287;-76
2022/09/07 10:58:06;;;;;;;4.23;2.30;;;;;;;27.77;84.58;100056.44;4969606;28;20636;-75
2022/09/07 11:00:44;;;;;;;4.47;2.30;;;;;;;27.81;84.40;100057.00;4920089;29;20575;-75
2022/09/07 11:03:30;;;;;;;3.17;2.03;;;;;;;27.86;84.53;100046.81;4962925;28;20233;-76
2022/09/07 11:06:15;;;;;;;3.20;1.90;;;;;;;27.89;84.02;100035.94;4965770;28;20563;-77
2022/09/07 11:09:07;;;;;;;1.60;1.50;;;;;;;27.91;83.62;100023.31;4973144;28;20677;-77
2022/09/07 11:11:39;;;;;;;2.50;1.90;;;;;;;28.01;83.12;100031.34;4975176;28;20259;-78
2022/09/07 11:14:10;;;;;;;2.40;1.80;;;;;;;28.06;82.91;100020.31;4976795;28;20265;-76
2022/09/07 11:16:38;;;;;;;2.30;2.10;;;;;;;28.08;82.36;100021.00;4971568;28;20213;-76
2022/09/07 11:19:42;;;;;;;2.63;1.83;;;;;;;28.17;81.73;100019.38;4976099;28;20256;-75
2022/09/07 11:22:19;;;;;;;2.67;2.20;;;;;;;28.17;81.26;100017.59;4940196;28;20208;-75
2022/09/07 11:24:50;;;;;;;4.50;2.10;;;;;;;28.13;80.67;100021.50;4965322;28;20193;-75
2022/09/07 11:27:40;;;;;;;1.90;1.70;;;;;;;27.93;81.30;100017.88;4973539;28;20209;-79
2022/09/07 11:30:18;;;;;;;2.30;2.10;;;;;;;27.68;81.41;100010.19;4971151;28;20212;-75
2022/09/07 11:33:15;;;;;;;3.47;1.90;;;;;;;27.62;80.71;100015.19;4968132;28;20185;-77
2022/09/07 11:36:01;;;;;;;4.07;1.80;;;;;;;27.70;81.45;100015.38;4970564;28;20190;-76
2022/09/07 11:38:48;;;;;;;2.90;1.73;;;;;;;27.87;80.24;100008.63;4970257;28;20584;-75